Tarantella — A8AI5 — position and weather

sailwx.info

Track history (hours):
 
Tides and Currents Weather Stations Pressure Air Temp Water Temp Dewpoint Dewpoint Depression Visibility Wind Speed Wind Dir Waves Ship Positions

Tarantella

Last reported at 2018-May-30 14:12 UTC. Time now 2018-Jun-20 23:08 UTC.
Position N 29°16' W 094°37'.
Warning: this ship's position is 21 days out of date.

Length 183 m; draft 10.9 m.

Type: Ship. MMSI: 636011604.

Date/timePositionNaut miles runAvg speedWind from/ knotsBaromVisibWave heightAir tempDewpointWater temp
2018-May-30 14:12N 29°16' W 094°37'2 9.6
2018-May-30 14:00N 29°15' W 094°38'0 0.0
2018-May-30 09:34N 29°14' W 094°38'0 0.0
2018-May-30 09:22N 29°14' W 094°38'0 0.0
2018-May-30 08:52N 29°14' W 094°38'0 0.0
2018-May-30 08:22N 29°14' W 094°38'0 0.1
2018-May-30 07:49N 29°14' W 094°38'1 1.6
2018-May-30 07:30N 29°15' W 094°38'3 5.8
2018-May-30 07:00N 29°18' W 094°37'611.1
2018-May-30 06:30N 29°21' W 094°42'612.0
2018-May-30 06:00N 29°23' W 094°49'612.6
2018-May-30 05:30N 29°29' W 094°52'612.0
2018-May-30 05:00N 29°34' W 094°55'511.1
2018-May-30 04:31N 29°39' W 094°58'5 9.4
2018-May-30 04:01N 29°43' W 095°01'4 7.5
2018-May-30 03:31N 29°45' W 095°04'3 6.3
2018-May-30 03:00N 29°44' W 095°07'2 3.6
2018-May-30 02:25N 29°45' W 095°10'0 0.0
2018-May-29 11:21N 29°45' W 095°10'0 0.0
2018-May-28 03:20N 29°45' W 095°10'0 0.0
2018-May-28 02:51N 29°45' W 095°10'0 0.8
2018-May-28 02:30N 29°44' W 095°09'3 5.3
2018-May-28 01:59N 29°45' W 095°06'3 6.1
2018-May-28 01:30N 29°44' W 095°03'4 7.9
2018-May-28 01:00N 29°42' W 094°59'611.0
2018-May-28 00:30N 29°36' W 094°57'612.3
2018-May-28 00:00N 29°31' W 094°53'713.2
2018-May-27 23:30N 29°25' W 094°50'612.6
2018-May-27 23:00N 29°21' W 094°45'713.6
2018-May-27 22:30N 29°19' W 094°38'2 3.9
2018-May-27 21:57N 29°19' W 094°35'0 0.2
2018-May-27 21:29N 29°19' W 094°35'0 0.0
2018-May-27 17:19N 29°19' W 094°35'0 0.0
2018-May-27 16:54N 29°19' W 094°35'0 0.0
2018-May-27 15:42N 29°19' W 094°35'0 0.0
2018-May-27 15:27N 29°19' W 094°35'0 0.0
2018-May-27 14:57N 29°19' W 094°35'0 0.0
2018-May-27 14:29N 29°19' W 094°35'0 0.0
2018-May-27 13:53N 29°19' W 094°35'0 0.0
2018-May-27 11:52N 29°19' W 094°35'0 0.0
2018-May-27 10:22N 29°19' W 094°35'0 0.0
2018-May-27 10:00N 29°19' W 094°35'0 0.0
2018-May-27 02:36N 29°19' W 094°35'0 0.0
2018-May-27 00:41N 29°19' W 094°35'0 0.0
2018-May-26 21:46N 29°19' W 094°35'0 0.0
2018-May-26 21:25N 29°19' W 094°35'0 0.0
2018-May-26 19:54N 29°19' W 094°35'0 0.0
2018-May-26 11:45N 29°19' W 094°35'0 0.0
2018-May-26 08:56N 29°19' W 094°35'0 0.0
2018-May-25 22:03N 29°19' W 094°35'0 0.0
2018-May-25 21:57N 29°19' W 094°35'0 0.0
2018-May-25 17:19N 29°19' W 094°35'0 0.0
2018-May-25 16:52N 29°19' W 094°35'0 0.0
2018-May-25 07:33N 29°19' W 094°35'0 0.6
2018-May-25 07:30N 29°19' W 094°35'2 3.9
2018-May-25 07:00N 29°19' W 094°38'611.6
2018-May-25 06:30N 29°21' W 094°44'4 8.4
2018-May-25 06:00N 29°19' W 094°48'0 0.2
2018-May-25 05:25N 29°19' W 094°48'0 0.0
2018-May-25 04:58N 29°19' W 094°48'0 0.0
2018-May-25 04:21N 29°19' W 094°48'0 0.0
2018-May-25 03:45N 29°19' W 094°48'0 0.0
2018-May-25 03:15N 29°19' W 094°48'0 0.0
2018-May-25 02:54N 29°19' W 094°48'0 0.0
2018-May-25 02:15N 29°19' W 094°48'0 0.0
2018-May-25 01:50N 29°19' W 094°48'0 0.0
2018-May-25 01:20N 29°19' W 094°48'0 0.0
2018-May-25 00:59N 29°19' W 094°48'0 0.0
2018-May-25 00:29N 29°19' W 094°48'0 0.0
2018-May-24 23:59N 29°19' W 094°48'0 0.0
2018-May-24 23:25N 29°19' W 094°48'0 0.0
2018-May-24 22:58N 29°19' W 094°48'0 0.0
2018-May-24 22:25N 29°19' W 094°48'0 0.0
2018-May-24 21:58N 29°19' W 094°48'0 0.0
2018-May-24 21:24N 29°19' W 094°48'0 0.0
2018-May-24 21:00N 29°19' W 094°48'0 0.0
2018-May-24 20:21N 29°19' W 094°48'0 0.0
2018-May-24 20:00N 29°19' W 094°48'0 0.0
2018-May-24 19:30N 29°19' W 094°48'0 0.0
2018-May-24 18:59N 29°19' W 094°48'0 0.0
2018-May-24 18:20N 29°19' W 094°48'0 0.0
2018-May-24 17:41N 29°19' W 094°48'0 0.0
2018-May-24 17:20N 29°19' W 094°48'0 0.0
2018-May-24 16:56N 29°19' W 094°48'0 0.0
2018-May-24 16:28N 29°19' W 094°48'0 0.0
2018-May-24 15:52N 29°19' W 094°48'0 0.0
2018-May-24 15:28N 29°19' W 094°48'0 0.0
2018-May-24 14:58N 29°19' W 094°48'0 0.0
2018-May-24 14:24N 29°19' W 094°48'0 0.0
2018-May-24 14:00N 29°19' W 094°48'0 0.0
2018-May-24 09:00N 29°19' W 094°48'3 5.1
2018-May-24 08:30N 29°20' W 094°46'713.8
2018-May-24 07:59N 29°19' W 094°38'5 7.9
2018-May-24 07:23N 29°17' W 094°33'4 8.1
2018-May-24 06:56N 29°14' W 094°30'8 5.0
2018-May-24 05:26N 29°08' W 094°25'  
Track history (hours):
 
Tides and Currents Weather Stations Pressure Air Temp Water Temp Dewpoint Dewpoint Depression Visibility Wind Speed Wind Dir Waves Ship Positions

Tarantella

Last reported at 2018-May-30 14:12 UTC. Time now 2018-Jun-20 23:08 UTC.
Position N 29°16' W 094°37'.
Warning: this ship's position is 21 days out of date.

Length 183 m; draft 10.9 m.

Type: Ship. MMSI: 636011604.

Date/timePositionNaut miles runAvg speedWind from/ knotsBaromVisibWave heightAir tempDewpointWater temp
2018-May-30 14:12N 29°16' W 094°37'2 9.6
2018-May-30 14:00N 29°15' W 094°38'0 0.0
2018-May-30 09:34N 29°14' W 094°38'0 0.0
2018-May-30 09:22N 29°14' W 094°38'0 0.0
2018-May-30 08:52N 29°14' W 094°38'0 0.0
2018-May-30 08:22N 29°14' W 094°38'0 0.1
2018-May-30 07:49N 29°14' W 094°38'1 1.6
2018-May-30 07:30N 29°15' W 094°38'3 5.8
2018-May-30 07:00N 29°18' W 094°37'611.1
2018-May-30 06:30N 29°21' W 094°42'612.0
2018-May-30 06:00N 29°23' W 094°49'612.6
2018-May-30 05:30N 29°29' W 094°52'612.0
2018-May-30 05:00N 29°34' W 094°55'511.1
2018-May-30 04:31N 29°39' W 094°58'5 9.4
2018-May-30 04:01N 29°43' W 095°01'4 7.5
2018-May-30 03:31N 29°45' W 095°04'3 6.3
2018-May-30 03:00N 29°44' W 095°07'2 3.6
2018-May-30 02:25N 29°45' W 095°10'0 0.0
2018-May-29 11:21N 29°45' W 095°10'0 0.0
2018-May-28 03:20N 29°45' W 095°10'0 0.0
2018-May-28 02:51N 29°45' W 095°10'0 0.8
2018-May-28 02:30N 29°44' W 095°09'3 5.3
2018-May-28 01:59N 29°45' W 095°06'3 6.1
2018-May-28 01:30N 29°44' W 095°03'4 7.9
2018-May-28 01:00N 29°42' W 094°59'611.0
2018-May-28 00:30N 29°36' W 094°57'612.3
2018-May-28 00:00N 29°31' W 094°53'713.2
2018-May-27 23:30N 29°25' W 094°50'612.6
2018-May-27 23:00N 29°21' W 094°45'713.6
2018-May-27 22:30N 29°19' W 094°38'2 3.9
2018-May-27 21:57N 29°19' W 094°35'0 0.2
2018-May-27 21:29N 29°19' W 094°35'0 0.0
2018-May-27 17:19N 29°19' W 094°35'0 0.0
2018-May-27 16:54N 29°19' W 094°35'0 0.0
2018-May-27 15:42N 29°19' W 094°35'0 0.0
2018-May-27 15:27N 29°19' W 094°35'0 0.0
2018-May-27 14:57N 29°19' W 094°35'0 0.0
2018-May-27 14:29N 29°19' W 094°35'0 0.0
2018-May-27 13:53N 29°19' W 094°35'0 0.0
2018-May-27 11:52N 29°19' W 094°35'0 0.0
2018-May-27 10:22N 29°19' W 094°35'0 0.0
2018-May-27 10:00N 29°19' W 094°35'0 0.0
2018-May-27 02:36N 29°19' W 094°35'0 0.0
2018-May-27 00:41N 29°19' W 094°35'0 0.0
2018-May-26 21:46N 29°19' W 094°35'0 0.0
2018-May-26 21:25N 29°19' W 094°35'0 0.0
2018-May-26 19:54N 29°19' W 094°35'0 0.0
2018-May-26 11:45N 29°19' W 094°35'0 0.0
2018-May-26 08:56N 29°19' W 094°35'0 0.0
2018-May-25 22:03N 29°19' W 094°35'0 0.0
2018-May-25 21:57N 29°19' W 094°35'0 0.0
2018-May-25 17:19N 29°19' W 094°35'0 0.0
2018-May-25 16:52N 29°19' W 094°35'0 0.0
2018-May-25 07:33N 29°19' W 094°35'0 0.6
2018-May-25 07:30N 29°19' W 094°35'2 3.9
2018-May-25 07:00N 29°19' W 094°38'611.6
2018-May-25 06:30N 29°21' W 094°44'4 8.4
2018-May-25 06:00N 29°19' W 094°48'0 0.2
2018-May-25 05:25N 29°19' W 094°48'0 0.0
2018-May-25 04:58N 29°19' W 094°48'0 0.0
2018-May-25 04:21N 29°19' W 094°48'0 0.0
2018-May-25 03:45N 29°19' W 094°48'0 0.0
2018-May-25 03:15N 29°19' W 094°48'0 0.0
2018-May-25 02:54N 29°19' W 094°48'0 0.0
2018-May-25 02:15N 29°19' W 094°48'0 0.0
2018-May-25 01:50N 29°19' W 094°48'0 0.0
2018-May-25 01:20N 29°19' W 094°48'0 0.0
2018-May-25 00:59N 29°19' W 094°48'0 0.0
2018-May-25 00:29N 29°19' W 094°48'0 0.0
2018-May-24 23:59N 29°19' W 094°48'0 0.0
2018-May-24 23:25N 29°19' W 094°48'0 0.0
2018-May-24 22:58N 29°19' W 094°48'0 0.0
2018-May-24 22:25N 29°19' W 094°48'0 0.0
2018-May-24 21:58N 29°19' W 094°48'0 0.0
2018-May-24 21:24N 29°19' W 094°48'0 0.0
2018-May-24 21:00N 29°19' W 094°48'0 0.0
2018-May-24 20:21N 29°19' W 094°48'0 0.0
2018-May-24 20:00N 29°19' W 094°48'0 0.0
2018-May-24 19:30N 29°19' W 094°48'0 0.0
2018-May-24 18:59N 29°19' W 094°48'0 0.0
2018-May-24 18:20N 29°19' W 094°48'0 0.0
2018-May-24 17:41N 29°19' W 094°48'0 0.0
2018-May-24 17:20N 29°19' W 094°48'0 0.0
2018-May-24 16:56N 29°19' W 094°48'0 0.0
2018-May-24 16:28N 29°19' W 094°48'0 0.0
2018-May-24 15:52N 29°19' W 094°48'0 0.0
2018-May-24 15:28N 29°19' W 094°48'0 0.0
2018-May-24 14:58N 29°19' W 094°48'0 0.0
2018-May-24 14:24N 29°19' W 094°48'0 0.0
2018-May-24 14:00N 29°19' W 094°48'0 0.0
2018-May-24 09:00N 29°19' W 094°48'3 5.1
2018-May-24 08:30N 29°20' W 094°46'713.8
2018-May-24 07:59N 29°19' W 094°38'5 7.9
2018-May-24 07:23N 29°17' W 094°33'4 8.1
2018-May-24 06:56N 29°14' W 094°30'8 5.0
2018-May-24 05:26N 29°08' W 094°25'  

Dump ship's entire track history